Accueil
METAR-TAF:

METAR-TAF

Aéroports :

Aérodrome de Melun-Villaroche

Melun, France

latitude: 48-37N, longitude: 002-41E, altitude: 95 m

Observation

Le bulletin a été fait il y a 1 heure et 10 minutes, à 11:00 UTC
Vent 4 kt de ouest/nord-ouest, variant entre sud-ouest et nord/nord-ouest
Température 12°C
Humidité 58%
Pression 1019 hPa
Visibilité 10 km ou plus
Quelques nuages à une hauteur de 2800 ft
Nuages fragmentés à une hauteur de 6400 ft
Ciel couvert à une hauteur de 7400 ft

METAR: LFPM 031100Z AUTO 29004KT 230V330 9999 FEW028 BKN064 OVC074 12/04 Q1019

Heure: 14:10 (12:10 UTC)


TAF: absent

Observations et prévisions météorologiques de plus de 4000 aéroports (messages METAR et TAF).

Les stations disponibles sont représentées par des disques jaunes et rouges sur la carte.

Passer la souris dessus pour voir le nom de la station.

Cliquer dessus pour voir les observations et prévisions météorologiques.

Pour changer de carte: cliquez sur les boutons verts avec une croix noire pour zoomer, sur le bouton vert avec un tiret pour effectuer un zoom arrière, ou sur les flèches vertes pour les cartes adjacentes.


METAR-TAF: